sensor_id;sensor_type;location;lat;lon;timestamp;temperature;humidity
1155;DHT22;566;48.414;9.118;2023-03-08T00:01:59;2.40;83.30
1155;DHT22;566;48.414;9.118;2023-03-08T00:04:25;2.50;83.20
1155;DHT22;566;48.414;9.118;2023-03-08T00:06:50;2.40;83.60
1155;DHT22;566;48.414;9.118;2023-03-08T00:09:16;2.40;83.40
1155;DHT22;566;48.414;9.118;2023-03-08T00:11:42;2.40;83.40
1155;DHT22;566;48.414;9.118;2023-03-08T00:14:07;2.40;83.40
1155;DHT22;566;48.414;9.118;2023-03-08T00:16:33;2.40;83.60
1155;DHT22;566;48.414;9.118;2023-03-08T00:18:59;2.40;83.80
1155;DHT22;566;48.414;9.118;2023-03-08T00:21:26;2.30;84.10
1155;DHT22;566;48.414;9.118;2023-03-08T00:23:53;2.30;84.30
1155;DHT22;566;48.414;9.118;2023-03-08T00:26:19;2.20;84.60
1155;DHT22;566;48.414;9.118;2023-03-08T00:28:45;2.20;85.00
1155;DHT22;566;48.414;9.118;2023-03-08T00:31:12;2.20;85.00
1155;DHT22;566;48.414;9.118;2023-03-08T00:33:38;2.10;85.10
1155;DHT22;566;48.414;9.118;2023-03-08T00:36:13;2.10;85.40
1155;DHT22;566;48.414;9.118;2023-03-08T00:38:39;2.20;85.30
1155;DHT22;566;48.414;9.118;2023-03-08T00:41:05;2.10;85.50
1155;DHT22;566;48.414;9.118;2023-03-08T00:43:31;2.10;85.60
1155;DHT22;566;48.414;9.118;2023-03-08T00:45:57;2.00;85.80
1155;DHT22;566;48.414;9.118;2023-03-08T00:48:23;2.00;86.10
1155;DHT22;566;48.414;9.118;2023-03-08T00:50:49;2.00;85.90
1155;DHT22;566;48.414;9.118;2023-03-08T00:53:15;1.90;86.00
1155;DHT22;566;48.414;9.118;2023-03-08T00:55:55;1.90;86.40
1155;DHT22;566;48.414;9.118;2023-03-08T00:58:23;2.00;86.00
1155;DHT22;566;48.414;9.118;2023-03-08T01:00:48;2.10;85.60
1155;DHT22;566;48.414;9.118;2023-03-08T01:03:15;2.10;85.40
1155;DHT22;566;48.414;9.118;2023-03-08T01:05:43;2.20;85.40
1155;DHT22;566;48.414;9.118;2023-03-08T01:08:12;2.10;85.30
1155;DHT22;566;48.414;9.118;2023-03-08T01:10:38;2.20;85.00
1155;DHT22;566;48.414;9.118;2023-03-08T01:13:06;2.20;85.10
1155;DHT22;566;48.414;9.118;2023-03-08T01:15:36;2.10;85.20
1155;DHT22;566;48.414;9.118;2023-03-08T01:18:04;2.10;85.40
1155;DHT22;566;48.414;9.118;2023-03-08T01:20:31;2.10;85.50
1155;DHT22;566;48.414;9.118;2023-03-08T01:22:57;2.20;85.00
1155;DHT22;566;48.414;9.118;2023-03-08T01:25:23;2.30;84.50
1155;DHT22;566;48.414;9.118;2023-03-08T01:27:49;2.30;84.30
1155;DHT22;566;48.414;9.118;2023-03-08T01:30:17;2.30;84.10
1155;DHT22;566;48.414;9.118;2023-03-08T01:32:43;2.40;84.20
1155;DHT22;566;48.414;9.118;2023-03-08T01:35:12;2.40;83.90
1155;DHT22;566;48.414;9.118;2023-03-08T01:37:37;2.40;83.90
1155;DHT22;566;48.414;9.118;2023-03-08T01:40:05;2.40;83.90
1155;DHT22;566;48.414;9.118;2023-03-08T01:42:31;2.40;83.80
1155;DHT22;566;48.414;9.118;2023-03-08T01:45:00;2.30;84.00
1155;DHT22;566;48.414;9.118;2023-03-08T01:47:31;2.30;83.80
1155;DHT22;566;48.414;9.118;2023-03-08T01:50:10;2.30;83.80
1155;DHT22;566;48.414;9.118;2023-03-08T01:52:40;2.30;84.00
1155;DHT22;566;48.414;9.118;2023-03-08T01:55:09;2.20;84.20
1155;DHT22;566;48.414;9.118;2023-03-08T01:57:41;2.30;84.00
1155;DHT22;566;48.414;9.118;2023-03-08T02:00:19;2.30;84.00
1155;DHT22;566;48.414;9.118;2023-03-08T02:02:50;2.40;84.10
1155;DHT22;566;48.414;9.118;2023-03-08T02:05:18;2.40;84.10
1155;DHT22;566;48.414;9.118;2023-03-08T02:07:45;2.40;84.00
1155;DHT22;566;48.414;9.118;2023-03-08T02:10:12;2.40;84.10
1155;DHT22;566;48.414;9.118;2023-03-08T02:12:38;2.40;84.30
1155;DHT22;566;48.414;9.118;2023-03-08T02:15:07;2.30;84.40
1155;DHT22;566;48.414;9.118;2023-03-08T02:17:39;2.30;84.50
1155;DHT22;566;48.414;9.118;2023-03-08T02:20:25;2.30;84.30
1155;DHT22;566;48.414;9.118;2023-03-08T02:22:52;2.40;84.20
1155;DHT22;566;48.414;9.118;2023-03-08T02:25:24;2.40;84.20
1155;DHT22;566;48.414;9.118;2023-03-08T02:27:53;2.50;83.80
1155;DHT22;566;48.414;9.118;2023-03-08T02:30:28;2.60;83.70
1155;DHT22;566;48.414;9.118;2023-03-08T02:32:55;2.60;83.60
1155;DHT22;566;48.414;9.118;2023-03-08T02:35:23;2.70;83.20
1155;DHT22;566;48.414;9.118;2023-03-08T02:37:48;2.70;83.20
1155;DHT22;566;48.414;9.118;2023-03-08T02:40:14;2.70;83.30
1155;DHT22;566;48.414;9.118;2023-03-08T02:42:40;2.60;83.50
1155;DHT22;566;48.414;9.118;2023-03-08T02:45:07;2.50;83.70
1155;DHT22;566;48.414;9.118;2023-03-08T02:47:33;2.50;84.00
1155;DHT22;566;48.414;9.118;2023-03-08T02:49:58;2.50;83.60
1155;DHT22;566;48.414;9.118;2023-03-08T02:52:25;2.60;83.60
1155;DHT22;566;48.414;9.118;2023-03-08T02:54:51;2.70;83.40
1155;DHT22;566;48.414;9.118;2023-03-08T02:57:18;2.80;83.00
1155;DHT22;566;48.414;9.118;2023-03-08T02:59:44;2.80;83.00
1155;DHT22;566;48.414;9.118;2023-03-08T03:02:10;2.80;83.10
1155;DHT22;566;48.414;9.118;2023-03-08T03:04:36;2.80;83.30
1155;DHT22;566;48.414;9.118;2023-03-08T03:07:02;2.80;83.30
1155;DHT22;566;48.414;9.118;2023-03-08T03:09:34;2.80;83.20
1155;DHT22;566;48.414;9.118;2023-03-08T03:12:00;2.80;83.10
1155;DHT22;566;48.414;9.118;2023-03-08T03:14:28;2.80;83.20
1155;DHT22;566;48.414;9.118;2023-03-08T03:16:54;2.90;82.90
1155;DHT22;566;48.414;9.118;2023-03-08T03:19:20;2.90;83.10
1155;DHT22;566;48.414;9.118;2023-03-08T03:21:47;2.90;82.80
1155;DHT22;566;48.414;9.118;2023-03-08T03:24:13;2.90;82.70
1155;DHT22;566;48.414;9.118;2023-03-08T03:26:40;2.90;83.10
1155;DHT22;566;48.414;9.118;2023-03-08T03:29:05;2.80;83.20
1155;DHT22;566;48.414;9.118;2023-03-08T03:31:31;2.90;82.60
1155;DHT22;566;48.414;9.118;2023-03-08T03:33:57;2.90;82.70
1155;DHT22;566;48.414;9.118;2023-03-08T03:36:23;2.90;82.40
1155;DHT22;566;48.414;9.118;2023-03-08T03:38:50;2.80;82.70
1155;DHT22;566;48.414;9.118;2023-03-08T03:41:19;2.80;82.80
1155;DHT22;566;48.414;9.118;2023-03-08T03:43:46;2.80;82.60
1155;DHT22;566;48.414;9.118;2023-03-08T03:46:14;2.70;82.70
1155;DHT22;566;48.414;9.118;2023-03-08T03:48:40;2.60;83.30
1155;DHT22;566;48.414;9.118;2023-03-08T03:51:13;2.50;83.60
1155;DHT22;566;48.414;9.118;2023-03-08T03:53:40;2.40;84.10
1155;DHT22;566;48.414;9.118;2023-03-08T03:58:36;2.40;83.90
1155;DHT22;566;48.414;9.118;2023-03-08T04:03:41;2.40;84.30
1155;DHT22;566;48.414;9.118;2023-03-08T04:06:18;2.20;84.70
1155;DHT22;566;48.414;9.118;2023-03-08T04:08:44;2.10;85.30
1155;DHT22;566;48.414;9.118;2023-03-08T04:11:18;2.00;85.80
1155;DHT22;566;48.414;9.118;2023-03-08T04:13:44;2.00;86.40
1155;DHT22;566;48.414;9.118;2023-03-08T04:16:27;2.00;86.20
1155;DHT22;566;48.414;9.118;2023-03-08T04:18:59;2.00;86.50
1155;DHT22;566;48.414;9.118;2023-03-08T04:21:26;2.10;86.50
1155;DHT22;566;48.414;9.118;2023-03-08T04:23:52;1.90;87.10
1155;DHT22;566;48.414;9.118;2023-03-08T04:26:18;1.90;87.00
1155;DHT22;566;48.414;9.118;2023-03-08T04:28:44;2.00;87.00
1155;DHT22;566;48.414;9.118;2023-03-08T04:31:30;2.10;86.90
1155;DHT22;566;48.414;9.118;2023-03-08T04:33:56;2.10;86.80
1155;DHT22;566;48.414;9.118;2023-03-08T04:36:25;2.30;86.40
1155;DHT22;566;48.414;9.118;2023-03-08T04:38:51;2.40;85.50
1155;DHT22;566;48.414;9.118;2023-03-08T04:41:18;2.50;85.20
1155;DHT22;566;48.414;9.118;2023-03-08T04:43:52;2.60;85.00
1155;DHT22;566;48.414;9.118;2023-03-08T04:46:19;2.60;85.60
1155;DHT22;566;48.414;9.118;2023-03-08T04:48:45;2.50;85.90
1155;DHT22;566;48.414;9.118;2023-03-08T04:51:12;2.50;85.80
1155;DHT22;566;48.414;9.118;2023-03-08T04:53:38;2.50;85.90
1155;DHT22;566;48.414;9.118;2023-03-08T04:56:06;2.40;86.40
1155;DHT22;566;48.414;9.118;2023-03-08T04:58:32;2.50;86.10
1155;DHT22;566;48.414;9.118;2023-03-08T05:00:58;2.60;86.00
1155;DHT22;566;48.414;9.118;2023-03-08T05:03:24;2.70;86.10
1155;DHT22;566;48.414;9.118;2023-03-08T05:05:52;2.70;86.50
1155;DHT22;566;48.414;9.118;2023-03-08T05:08:18;2.70;86.70
1155;DHT22;566;48.414;9.118;2023-03-08T05:10:55;2.90;86.80
1155;DHT22;566;48.414;9.118;2023-03-08T05:13:24;3.10;86.60
1155;DHT22;566;48.414;9.118;2023-03-08T05:15:50;3.20;86.40
1155;DHT22;566;48.414;9.118;2023-03-08T05:18:16;3.20;86.50
1155;DHT22;566;48.414;9.118;2023-03-08T05:20:44;3.20;86.60
1155;DHT22;566;48.414;9.118;2023-03-08T05:23:16;3.30;86.70
1155;DHT22;566;48.414;9.118;2023-03-08T05:25:42;3.30;86.70
1155;DHT22;566;48.414;9.118;2023-03-08T05:28:08;3.30;86.70
1155;DHT22;566;48.414;9.118;2023-03-08T05:30:36;3.30;86.80
1155;DHT22;566;48.414;9.118;2023-03-08T05:33:02;3.30;87.10
1155;DHT22;566;48.414;9.118;2023-03-08T05:35:27;3.30;87.10
1155;DHT22;566;48.414;9.118;2023-03-08T05:37:53;3.30;87.10
1155;DHT22;566;48.414;9.118;2023-03-08T05:40:18;3.30;87.20
1155;DHT22;566;48.414;9.118;2023-03-08T05:42:44;3.30;87.00
1155;DHT22;566;48.414;9.118;2023-03-08T05:45:10;3.30;87.20
1155;DHT22;566;48.414;9.118;2023-03-08T05:47:35;3.30;87.40
1155;DHT22;566;48.414;9.118;2023-03-08T05:50:04;3.30;87.50
1155;DHT22;566;48.414;9.118;2023-03-08T05:52:30;3.30;87.80
1155;DHT22;566;48.414;9.118;2023-03-08T05:54:56;3.30;87.90
1155;DHT22;566;48.414;9.118;2023-03-08T05:57:21;3.30;88.10
1155;DHT22;566;48.414;9.118;2023-03-08T05:59:47;3.20;88.30
1155;DHT22;566;48.414;9.118;2023-03-08T06:02:12;3.30;88.20
1155;DHT22;566;48.414;9.118;2023-03-08T06:04:38;3.30;88.40
1155;DHT22;566;48.414;9.118;2023-03-08T06:07:04;3.40;88.00
1155;DHT22;566;48.414;9.118;2023-03-08T06:09:29;3.40;87.60
1155;DHT22;566;48.414;9.118;2023-03-08T06:11:55;3.50;87.60
1155;DHT22;566;48.414;9.118;2023-03-08T06:14:20;3.50;87.70
1155;DHT22;566;48.414;9.118;2023-03-08T06:16:49;3.60;87.20
1155;DHT22;566;48.414;9.118;2023-03-08T06:19:15;3.50;87.30
1155;DHT22;566;48.414;9.118;2023-03-08T06:21:40;3.50;87.50
1155;DHT22;566;48.414;9.118;2023-03-08T06:24:06;3.50;87.30
1155;DHT22;566;48.414;9.118;2023-03-08T06:26:31;3.60;87.20
1155;DHT22;566;48.414;9.118;2023-03-08T06:28:57;3.60;86.80
1155;DHT22;566;48.414;9.118;2023-03-08T06:31:23;3.70;86.90
1155;DHT22;566;48.414;9.118;2023-03-08T06:33:48;3.60;87.20
1155;DHT22;566;48.414;9.118;2023-03-08T06:36:19;3.70;87.50
1155;DHT22;566;48.414;9.118;2023-03-08T06:38:45;3.70;87.50
1155;DHT22;566;48.414;9.118;2023-03-08T06:41:13;3.80;87.40
1155;DHT22;566;48.414;9.118;2023-03-08T06:43:39;3.90;87.70
1155;DHT22;566;48.414;9.118;2023-03-08T06:46:11;4.00;87.90
1155;DHT22;566;48.414;9.118;2023-03-08T06:48:37;4.00;87.80
1155;DHT22;566;48.414;9.118;2023-03-08T06:51:04;4.10;87.80
1155;DHT22;566;48.414;9.118;2023-03-08T06:53:33;4.20;87.80
1155;DHT22;566;48.414;9.118;2023-03-08T06:56:00;4.30;87.50
1155;DHT22;566;48.414;9.118;2023-03-08T06:58:27;4.30;87.30
1155;DHT22;566;48.414;9.118;2023-03-08T07:00:53;4.40;87.50
1155;DHT22;566;48.414;9.118;2023-03-08T07:03:19;4.50;87.40
1155;DHT22;566;48.414;9.118;2023-03-08T07:05:45;4.60;87.20
1155;DHT22;566;48.414;9.118;2023-03-08T07:08:10;4.60;87.00
1155;DHT22;566;48.414;9.118;2023-03-08T07:10:36;4.60;87.00
1155;DHT22;566;48.414;9.118;2023-03-08T07:13:02;4.70;87.00
1155;DHT22;566;48.414;9.118;2023-03-08T07:15:28;4.90;87.00
1155;DHT22;566;48.414;9.118;2023-03-08T07:17:55;4.90;86.40
1155;DHT22;566;48.414;9.118;2023-03-08T07:20:22;5.10;86.20
1155;DHT22;566;48.414;9.118;2023-03-08T07:22:47;5.20;86.40
1155;DHT22;566;48.414;9.118;2023-03-08T07:25:15;5.20;86.60
1155;DHT22;566;48.414;9.118;2023-03-08T07:27:41;5.20;86.70
1155;DHT22;566;48.414;9.118;2023-03-08T07:30:08;5.30;86.90
1155;DHT22;566;48.414;9.118;2023-03-08T07:32:34;5.30;87.10
1155;DHT22;566;48.414;9.118;2023-03-08T07:35:00;5.40;87.40
1155;DHT22;566;48.414;9.118;2023-03-08T07:37:26;5.60;86.90
1155;DHT22;566;48.414;9.118;2023-03-08T07:39:51;5.60;87.00
1155;DHT22;566;48.414;9.118;2023-03-08T07:45:40;5.90;86.90
1155;DHT22;566;48.414;9.118;2023-03-08T07:48:06;6.00;87.10
1155;DHT22;566;48.414;9.118;2023-03-08T07:50:31;6.10;86.40
1155;DHT22;566;48.414;9.118;2023-03-08T07:52:58;6.20;86.40
1155;DHT22;566;48.414;9.118;2023-03-08T07:55:24;6.20;86.20
1155;DHT22;566;48.414;9.118;2023-03-08T07:57:52;6.20;86.10
1155;DHT22;566;48.414;9.118;2023-03-08T08:00:18;6.30;85.90
1155;DHT22;566;48.414;9.118;2023-03-08T08:02:43;6.40;85.90
1155;DHT22;566;48.414;9.118;2023-03-08T08:05:10;6.50;85.80
1155;DHT22;566;48.414;9.118;2023-03-08T08:07:35;6.40;85.70
1155;DHT22;566;48.414;9.118;2023-03-08T08:10:01;6.40;85.50
1155;DHT22;566;48.414;9.118;2023-03-08T08:12:27;6.40;85.70
1155;DHT22;566;48.414;9.118;2023-03-08T08:14:52;6.20;85.80
1155;DHT22;566;48.414;9.118;2023-03-08T08:17:19;6.20;86.30
1155;DHT22;566;48.414;9.118;2023-03-08T08:19:45;6.20;86.10
1155;DHT22;566;48.414;9.118;2023-03-08T08:22:10;6.30;86.00
1155;DHT22;566;48.414;9.118;2023-03-08T08:24:36;6.50;85.30
1155;DHT22;566;48.414;9.118;2023-03-08T08:27:02;6.60;84.40
1155;DHT22;566;48.414;9.118;2023-03-08T08:29:27;6.80;84.40
1155;DHT22;566;48.414;9.118;2023-03-08T08:31:53;7.00;84.30
1155;DHT22;566;48.414;9.118;2023-03-08T08:34:19;7.10;83.50
1155;DHT22;566;48.414;9.118;2023-03-08T08:36:45;7.10;83.40
1155;DHT22;566;48.414;9.118;2023-03-08T08:39:11;7.10;83.60
1155;DHT22;566;48.414;9.118;2023-03-08T08:41:39;7.00;83.40
1155;DHT22;566;48.414;9.118;2023-03-08T08:44:05;7.00;84.10
1155;DHT22;566;48.414;9.118;2023-03-08T08:46:30;6.80;84.50
1155;DHT22;566;48.414;9.118;2023-03-08T08:48:58;6.60;85.00
1155;DHT22;566;48.414;9.118;2023-03-08T08:51:25;6.70;86.10
1155;DHT22;566;48.414;9.118;2023-03-08T08:53:51;6.70;85.30
1155;DHT22;566;48.414;9.118;2023-03-08T08:56:23;6.70;86.00
1155;DHT22;566;48.414;9.118;2023-03-08T08:58:49;6.70;86.10
1155;DHT22;566;48.414;9.118;2023-03-08T09:01:26;6.70;86.40
1155;DHT22;566;48.414;9.118;2023-03-08T09:03:54;6.60;86.90
1155;DHT22;566;48.414;9.118;2023-03-08T09:06:21;6.70;86.90
1155;DHT22;566;48.414;9.118;2023-03-08T09:08:55;6.70;86.80
1155;DHT22;566;48.414;9.118;2023-03-08T09:11:21;6.90;86.70
1155;DHT22;566;48.414;9.118;2023-03-08T09:13:47;6.90;86.80
1155;DHT22;566;48.414;9.118;2023-03-08T09:16:21;6.90;87.20
1155;DHT22;566;48.414;9.118;2023-03-08T09:18:48;7.00;87.40
1155;DHT22;566;48.414;9.118;2023-03-08T09:21:14;7.00;87.30
1155;DHT22;566;48.414;9.118;2023-03-08T09:23:39;7.20;88.20
1155;DHT22;566;48.414;9.118;2023-03-08T09:26:05;7.30;88.10
1155;DHT22;566;48.414;9.118;2023-03-08T09:28:32;7.40;88.50
1155;DHT22;566;48.414;9.118;2023-03-08T09:30:57;7.40;89.90
1155;DHT22;566;48.414;9.118;2023-03-08T09:33:23;7.40;90.80
1155;DHT22;566;48.414;9.118;2023-03-08T09:35:56;7.40;90.60
1155;DHT22;566;48.414;9.118;2023-03-08T09:38:25;7.60;89.80
1155;DHT22;566;48.414;9.118;2023-03-08T09:44:17;7.90;89.60
1155;DHT22;566;48.414;9.118;2023-03-08T09:47:03;7.90;90.00
1155;DHT22;566;48.414;9.118;2023-03-08T09:49:31;7.90;90.00
1155;DHT22;566;48.414;9.118;2023-03-08T09:54:44;8.20;90.20
1155;DHT22;566;48.414;9.118;2023-03-08T09:57:15;8.30;89.90
1155;DHT22;566;48.414;9.118;2023-03-08T10:02:25;8.50;90.30
1155;DHT22;566;48.414;9.118;2023-03-08T10:05:02;8.50;91.00
1155;DHT22;566;48.414;9.118;2023-03-08T10:10:23;8.30;93.30
1155;DHT22;566;48.414;9.118;2023-03-08T10:15:43;8.00;95.00
1155;DHT22;566;48.414;9.118;2023-03-08T10:20:45;8.20;95.40
1155;DHT22;566;48.414;9.118;2023-03-08T10:23:17;8.40;94.90
1155;DHT22;566;48.414;9.118;2023-03-08T10:25:45;8.50;94.70
1155;DHT22;566;48.414;9.118;2023-03-08T10:28:22;8.60;94.40
1155;DHT22;566;48.414;9.118;2023-03-08T10:30:56;8.80;94.20
1155;DHT22;566;48.414;9.118;2023-03-08T10:33:30;8.90;93.90
1155;DHT22;566;48.414;9.118;2023-03-08T10:36:00;9.10;93.50
1155;DHT22;566;48.414;9.118;2023-03-08T10:38:32;9.00;93.80
1155;DHT22;566;48.414;9.118;2023-03-08T10:41:05;8.90;94.20
1155;DHT22;566;48.414;9.118;2023-03-08T10:43:35;8.90;94.20
1155;DHT22;566;48.414;9.118;2023-03-08T10:46:11;9.00;94.20
1155;DHT22;566;48.414;9.118;2023-03-08T10:48:37;9.10;94.40
1155;DHT22;566;48.414;9.118;2023-03-08T10:51:05;9.10;93.80
1155;DHT22;566;48.414;9.118;2023-03-08T10:53:32;9.20;93.80
1155;DHT22;566;48.414;9.118;2023-03-08T10:56:00;9.30;93.70
1155;DHT22;566;48.414;9.118;2023-03-08T10:58:35;9.50;93.40
1155;DHT22;566;48.414;9.118;2023-03-08T11:01:29;9.50;93.40
1155;DHT22;566;48.414;9.118;2023-03-08T11:04:02;9.70;93.40
1155;DHT22;566;48.414;9.118;2023-03-08T11:06:28;9.90;93.30
1155;DHT22;566;48.414;9.118;2023-03-08T11:08:56;10.10;92.70
1155;DHT22;566;48.414;9.118;2023-03-08T11:11:23;10.20;92.20
1155;DHT22;566;48.414;9.118;2023-03-08T11:13:51;10.40;92.20
1155;DHT22;566;48.414;9.118;2023-03-08T11:30:31;11.10;90.20
1155;DHT22;566;48.414;9.118;2023-03-08T11:33:08;11.40;89.50
1155;DHT22;566;48.414;9.118;2023-03-08T11:36:05;11.80;89.00
1155;DHT22;566;48.414;9.118;2023-03-08T11:38:32;12.00;87.70
1155;DHT22;566;48.414;9.118;2023-03-08T11:46:36;12.20;87.00
1155;DHT22;566;48.414;9.118;2023-03-08T11:52:03;12.40;86.60
1155;DHT22;566;48.414;9.118;2023-03-08T11:55:02;12.80;86.40
1155;DHT22;566;48.414;9.118;2023-03-08T11:57:37;12.80;85.40
1155;DHT22;566;48.414;9.118;2023-03-08T12:00:45;12.80;85.90
1155;DHT22;566;48.414;9.118;2023-03-08T12:03:13;13.10;84.70
1155;DHT22;566;48.414;9.118;2023-03-08T12:05:44;12.90;85.30
1155;DHT22;566;48.414;9.118;2023-03-08T12:08:35;12.70;86.10
1155;DHT22;566;48.414;9.118;2023-03-08T12:11:08;12.40;86.70
1155;DHT22;566;48.414;9.118;2023-03-08T12:13:38;12.10;87.50
1155;DHT22;566;48.414;9.118;2023-03-08T12:26:47;11.20;90.70
1155;DHT22;566;48.414;9.118;2023-03-08T12:29:20;11.10;90.80
1155;DHT22;566;48.414;9.118;2023-03-08T12:31:48;10.90;91.30
1155;DHT22;566;48.414;9.118;2023-03-08T12:34:37;11.00;91.40
1155;DHT22;566;48.414;9.118;2023-03-08T12:37:03;10.90;91.60
1155;DHT22;566;48.414;9.118;2023-03-08T12:39:35;10.80;92.00
1155;DHT22;566;48.414;9.118;2023-03-08T12:44:39;10.70;92.70
1155;DHT22;566;48.414;9.118;2023-03-08T12:49:39;10.90;92.80
1155;DHT22;566;48.414;9.118;2023-03-08T12:52:26;11.00;92.50
1155;DHT22;566;48.414;9.118;2023-03-08T12:57:31;11.30;91.80
1155;DHT22;566;48.414;9.118;2023-03-08T13:00:04;11.40;91.00
1155;DHT22;566;48.414;9.118;2023-03-08T13:02:33;11.50;91.30
1155;DHT22;566;48.414;9.118;2023-03-08T13:05:02;12.10;90.10
1155;DHT22;566;48.414;9.118;2023-03-08T13:10:32;12.20;89.10
1155;DHT22;566;48.414;9.118;2023-03-08T13:13:42;12.20;89.00
1155;DHT22;566;48.414;9.118;2023-03-08T13:21:47;11.90;89.60
1155;DHT22;566;48.414;9.118;2023-03-08T13:29:36;11.70;90.10
1155;DHT22;566;48.414;9.118;2023-03-08T13:32:14;11.70;90.60
1155;DHT22;566;48.414;9.118;2023-03-08T13:34:41;11.60;90.60
1155;DHT22;566;48.414;9.118;2023-03-08T13:37:19;11.50;91.10
1155;DHT22;566;48.414;9.118;2023-03-08T13:39:51;11.50;91.30
1155;DHT22;566;48.414;9.118;2023-03-08T13:42:18;11.50;91.30
1155;DHT22;566;48.414;9.118;2023-03-08T13:44:50;11.50;91.50
1155;DHT22;566;48.414;9.118;2023-03-08T13:47:32;11.30;91.70
1155;DHT22;566;48.414;9.118;2023-03-08T13:49:58;11.30;92.00
1155;DHT22;566;48.414;9.118;2023-03-08T13:52:29;11.30;92.10
1155;DHT22;566;48.414;9.118;2023-03-08T13:55:02;11.40;92.10
1155;DHT22;566;48.414;9.118;2023-03-08T13:57:34;11.50;91.80
1155;DHT22;566;48.414;9.118;2023-03-08T14:00:24;11.50;91.70
1155;DHT22;566;48.414;9.118;2023-03-08T14:02:48;11.50;91.90
1155;DHT22;566;48.414;9.118;2023-03-08T14:05:22;11.40;92.20
1155;DHT22;566;48.414;9.118;2023-03-08T14:07:58;11.30;92.50
1155;DHT22;566;48.414;9.118;2023-03-08T14:10:33;11.30;92.70
1155;DHT22;566;48.414;9.118;2023-03-08T14:13:00;11.40;92.70
1155;DHT22;566;48.414;9.118;2023-03-08T14:15:26;11.40;92.60
1155;DHT22;566;48.414;9.118;2023-03-08T14:17:52;11.20;92.90
1155;DHT22;566;48.414;9.118;2023-03-08T14:20:22;11.20;93.20
1155;DHT22;566;48.414;9.118;2023-03-08T14:22:50;11.10;93.50
1155;DHT22;566;48.414;9.118;2023-03-08T14:25:28;11.10;93.60
1155;DHT22;566;48.414;9.118;2023-03-08T14:27:54;11.10;93.90
1155;DHT22;566;48.414;9.118;2023-03-08T14:30:28;11.20;93.90
1155;DHT22;566;48.414;9.118;2023-03-08T14:33:17;11.20;94.10
1155;DHT22;566;48.414;9.118;2023-03-08T14:35:52;11.40;93.30
1155;DHT22;566;48.414;9.118;2023-03-08T14:38:29;11.80;92.80
1155;DHT22;566;48.414;9.118;2023-03-08T14:40:56;11.90;92.60
1155;DHT22;566;48.414;9.118;2023-03-08T14:43:25;12.20;91.70
1155;DHT22;566;48.414;9.118;2023-03-08T14:45:54;12.20;91.20
1155;DHT22;566;48.414;9.118;2023-03-08T14:48:31;12.50;90.60
1155;DHT22;566;48.414;9.118;2023-03-08T14:51:00;12.70;89.40
1155;DHT22;566;48.414;9.118;2023-03-08T14:53:40;12.70;89.40
1155;DHT22;566;48.414;9.118;2023-03-08T14:56:16;13.00;88.40
1155;DHT22;566;48.414;9.118;2023-03-08T14:58:47;13.10;88.20
1155;DHT22;566;48.414;9.118;2023-03-08T15:01:23;12.70;88.80
1155;DHT22;566;48.414;9.118;2023-03-08T15:03:49;12.30;89.90
1155;DHT22;566;48.414;9.118;2023-03-08T15:06:25;11.90;91.20
1155;DHT22;566;48.414;9.118;2023-03-08T15:08:52;11.90;91.50
1155;DHT22;566;48.414;9.118;2023-03-08T15:11:18;12.10;91.40
1155;DHT22;566;48.414;9.118;2023-03-08T15:13:44;12.60;89.60
1155;DHT22;566;48.414;9.118;2023-03-08T15:16:12;12.60;89.70
1155;DHT22;566;48.414;9.118;2023-03-08T15:18:38;13.00;87.90
1155;DHT22;566;48.414;9.118;2023-03-08T15:21:03;12.90;88.00
1155;DHT22;566;48.414;9.118;2023-03-08T15:23:31;12.30;89.50
1155;DHT22;566;48.414;9.118;2023-03-08T15:26:07;12.10;90.30
1155;DHT22;566;48.414;9.118;2023-03-08T15:28:33;12.20;90.40
1155;DHT22;566;48.414;9.118;2023-03-08T15:30:58;12.10;90.10
1155;DHT22;566;48.414;9.118;2023-03-08T15:33:24;11.80;90.80
1155;DHT22;566;48.414;9.118;2023-03-08T15:35:50;11.60;90.90
1155;DHT22;566;48.414;9.118;2023-03-08T15:38:17;11.60;91.50
1155;DHT22;566;48.414;9.118;2023-03-08T15:40:43;11.40;91.90
1155;DHT22;566;48.414;9.118;2023-03-08T15:43:10;11.40;92.10
1155;DHT22;566;48.414;9.118;2023-03-08T15:45:36;11.40;91.90
1155;DHT22;566;48.414;9.118;2023-03-08T15:48:06;11.40;91.50
1155;DHT22;566;48.414;9.118;2023-03-08T15:50:33;11.50;91.70
1155;DHT22;566;48.414;9.118;2023-03-08T15:53:00;11.40;91.70
1155;DHT22;566;48.414;9.118;2023-03-08T15:55:27;11.40;91.80
1155;DHT22;566;48.414;9.118;2023-03-08T15:57:53;11.40;91.90
1155;DHT22;566;48.414;9.118;2023-03-08T16:00:20;11.40;92.20
1155;DHT22;566;48.414;9.118;2023-03-08T16:02:46;11.30;92.60
1155;DHT22;566;48.414;9.118;2023-03-08T16:05:13;11.30;92.60
1155;DHT22;566;48.414;9.118;2023-03-08T16:07:39;11.20;93.30
1155;DHT22;566;48.414;9.118;2023-03-08T16:10:07;11.10;93.10
1155;DHT22;566;48.414;9.118;2023-03-08T16:12:33;11.00;94.20
1155;DHT22;566;48.414;9.118;2023-03-08T16:14:59;10.80;95.20
1155;DHT22;566;48.414;9.118;2023-03-08T16:17:25;10.60;96.30
1155;DHT22;566;48.414;9.118;2023-03-08T16:19:52;10.30;97.00
1155;DHT22;566;48.414;9.118;2023-03-08T16:22:18;10.20;97.10
1155;DHT22;566;48.414;9.118;2023-03-08T16:24:44;10.20;97.30
1155;DHT22;566;48.414;9.118;2023-03-08T16:27:10;10.30;97.40
1155;DHT22;566;48.414;9.118;2023-03-08T16:29:36;10.30;97.20
1155;DHT22;566;48.414;9.118;2023-03-08T16:32:01;10.40;97.00
1155;DHT22;566;48.414;9.118;2023-03-08T16:34:28;10.40;97.00
1155;DHT22;566;48.414;9.118;2023-03-08T16:36:55;10.30;97.20
1155;DHT22;566;48.414;9.118;2023-03-08T16:39:22;10.30;97.40
1155;DHT22;566;48.414;9.118;2023-03-08T16:41:48;10.20;97.40
1155;DHT22;566;48.414;9.118;2023-03-08T16:44:28;10.20;97.30
1155;DHT22;566;48.414;9.118;2023-03-08T16:46:55;9.80;98.00
1155;DHT22;566;48.414;9.118;2023-03-08T16:49:21;9.50;95.90
1155;DHT22;566;48.414;9.118;2023-03-08T16:51:53;9.20;95.60
1155;DHT22;566;48.414;9.118;2023-03-08T16:54:18;9.10;94.90
1155;DHT22;566;48.414;9.118;2023-03-08T16:56:44;9.00;92.80
1155;DHT22;566;48.414;9.118;2023-03-08T16:59:11;8.90;92.50
1155;DHT22;566;48.414;9.118;2023-03-08T17:01:37;8.90;92.90
1155;DHT22;566;48.414;9.118;2023-03-08T17:04:03;9.00;94.60
1155;DHT22;566;48.414;9.118;2023-03-08T17:06:30;8.90;94.30
1155;DHT22;566;48.414;9.118;2023-03-08T17:08:57;8.90;94.20
1155;DHT22;566;48.414;9.118;2023-03-08T17:11:25;8.90;93.30
1155;DHT22;566;48.414;9.118;2023-03-08T17:13:53;8.80;94.40
1155;DHT22;566;48.414;9.118;2023-03-08T17:16:22;8.90;94.70
1155;DHT22;566;48.414;9.118;2023-03-08T17:18:50;8.90;95.30
1155;DHT22;566;48.414;9.118;2023-03-08T17:21:16;8.80;95.30
1155;DHT22;566;48.414;9.118;2023-03-08T17:23:43;8.90;95.20
1155;DHT22;566;48.414;9.118;2023-03-08T17:26:10;9.00;94.60
1155;DHT22;566;48.414;9.118;2023-03-08T17:28:36;9.00;96.20
1155;DHT22;566;48.414;9.118;2023-03-08T17:31:13;8.90;94.50
1155;DHT22;566;48.414;9.118;2023-03-08T17:33:39;8.90;94.60
1155;DHT22;566;48.414;9.118;2023-03-08T17:36:05;9.00;95.20
1155;DHT22;566;48.414;9.118;2023-03-08T17:38:32;9.00;96.60
1155;DHT22;566;48.414;9.118;2023-03-08T17:40:58;9.00;95.70
1155;DHT22;566;48.414;9.118;2023-03-08T17:43:24;8.90;95.60
1155;DHT22;566;48.414;9.118;2023-03-08T17:46:01;8.90;95.10
1155;DHT22;566;48.414;9.118;2023-03-08T17:48:26;8.90;95.60
1155;DHT22;566;48.414;9.118;2023-03-08T17:50:52;8.80;93.80
1155;DHT22;566;48.414;9.118;2023-03-08T17:53:18;8.80;95.00
1155;DHT22;566;48.414;9.118;2023-03-08T17:55:44;8.80;95.70
1155;DHT22;566;48.414;9.118;2023-03-08T17:58:10;8.80;95.60
1155;DHT22;566;48.414;9.118;2023-03-08T18:00:36;8.60;95.30